sensor_id;sensor_type;location;lat;lon;timestamp;temperature;humidity
25983;DHT22;13773;48.868;10.730;2024-03-07T00:00:56;2.40;99.90
25983;DHT22;13773;48.868;10.730;2024-03-07T00:03:22;2.30;99.90
25983;DHT22;13773;48.868;10.730;2024-03-07T00:05:49;2.20;99.90
25983;DHT22;13773;48.868;10.730;2024-03-07T00:08:15;2.20;99.90
25983;DHT22;13773;48.868;10.730;2024-03-07T00:10:41;2.10;99.90
25983;DHT22;13773;48.868;10.730;2024-03-07T00:13:09;2.00;99.90
25983;DHT22;13773;48.868;10.730;2024-03-07T00:15:35;2.00;99.90
25983;DHT22;13773;48.868;10.730;2024-03-07T00:18:01;2.00;99.90
25983;DHT22;13773;48.868;10.730;2024-03-07T00:20:27;1.90;99.90
25983;DHT22;13773;48.868;10.730;2024-03-07T00:22:52;1.90;99.90
25983;DHT22;13773;48.868;10.730;2024-03-07T00:25:18;1.90;99.90
25983;DHT22;13773;48.868;10.730;2024-03-07T00:27:45;1.90;99.90
25983;DHT22;13773;48.868;10.730;2024-03-07T00:30:11;1.90;99.90
25983;DHT22;13773;48.868;10.730;2024-03-07T00:32:39;1.70;99.90
25983;DHT22;13773;48.868;10.730;2024-03-07T00:35:06;1.70;99.90
25983;DHT22;13773;48.868;10.730;2024-03-07T00:37:34;1.60;99.90
25983;DHT22;13773;48.868;10.730;2024-03-07T00:40:00;1.50;99.90
25983;DHT22;13773;48.868;10.730;2024-03-07T00:42:26;1.60;99.90
25983;DHT22;13773;48.868;10.730;2024-03-07T00:44:53;1.50;99.90
25983;DHT22;13773;48.868;10.730;2024-03-07T00:47:18;1.40;99.90
25983;DHT22;13773;48.868;10.730;2024-03-07T00:49:44;1.30;99.90
25983;DHT22;13773;48.868;10.730;2024-03-07T00:52:13;1.10;99.90
25983;DHT22;13773;48.868;10.730;2024-03-07T00:54:39;1.20;99.90
25983;DHT22;13773;48.868;10.730;2024-03-07T00:57:05;1.00;99.90
25983;DHT22;13773;48.868;10.730;2024-03-07T00:59:30;0.90;99.90
25983;DHT22;13773;48.868;10.730;2024-03-07T01:01:56;0.70;99.90
25983;DHT22;13773;48.868;10.730;2024-03-07T01:04:22;0.60;99.90
25983;DHT22;13773;48.868;10.730;2024-03-07T01:06:48;0.50;99.90
25983;DHT22;13773;48.868;10.730;2024-03-07T01:09:14;0.50;99.90
25983;DHT22;13773;48.868;10.730;2024-03-07T01:11:42;0.40;99.90
25983;DHT22;13773;48.868;10.730;2024-03-07T01:14:08;0.60;99.90
25983;DHT22;13773;48.868;10.730;2024-03-07T01:16:33;0.70;99.90
25983;DHT22;13773;48.868;10.730;2024-03-07T01:19:00;0.50;99.90
25983;DHT22;13773;48.868;10.730;2024-03-07T01:21:26;0.40;99.90
25983;DHT22;13773;48.868;10.730;2024-03-07T01:23:52;0.30;99.90
25983;DHT22;13773;48.868;10.730;2024-03-07T01:26:17;0.40;99.90
25983;DHT22;13773;48.868;10.730;2024-03-07T01:28:43;0.50;99.90
25983;DHT22;13773;48.868;10.730;2024-03-07T01:31:09;0.30;99.90
25983;DHT22;13773;48.868;10.730;2024-03-07T01:33:35;0.20;99.90
25983;DHT22;13773;48.868;10.730;2024-03-07T01:36:01;0.20;99.90
25983;DHT22;13773;48.868;10.730;2024-03-07T01:38:30;0.00;99.90
25983;DHT22;13773;48.868;10.730;2024-03-07T01:40:55;-0.10;99.90
25983;DHT22;13773;48.868;10.730;2024-03-07T01:43:21;-0.10;99.90
25983;DHT22;13773;48.868;10.730;2024-03-07T01:45:47;-0.20;99.90
25983;DHT22;13773;48.868;10.730;2024-03-07T01:48:21;-0.20;99.90
25983;DHT22;13773;48.868;10.730;2024-03-07T01:50:49;-0.20;99.90
25983;DHT22;13773;48.868;10.730;2024-03-07T01:53:15;-0.30;99.90
25983;DHT22;13773;48.868;10.730;2024-03-07T01:55:41;-0.30;99.90
25983;DHT22;13773;48.868;10.730;2024-03-07T01:58:08;-0.10;99.90
25983;DHT22;13773;48.868;10.730;2024-03-07T02:00:35;0.10;99.90
25983;DHT22;13773;48.868;10.730;2024-03-07T02:03:00;0.00;99.90
25983;DHT22;13773;48.868;10.730;2024-03-07T02:05:26;-0.20;99.90
25983;DHT22;13773;48.868;10.730;2024-03-07T02:07:52;-0.30;99.90
25983;DHT22;13773;48.868;10.730;2024-03-07T02:10:17;-0.50;99.90
25983;DHT22;13773;48.868;10.730;2024-03-07T02:12:43;-0.60;99.90
25983;DHT22;13773;48.868;10.730;2024-03-07T02:15:10;-0.70;99.90
25983;DHT22;13773;48.868;10.730;2024-03-07T02:17:37;-0.80;99.90
25983;DHT22;13773;48.868;10.730;2024-03-07T02:20:03;-0.80;99.90
25983;DHT22;13773;48.868;10.730;2024-03-07T02:22:30;-0.80;99.90
25983;DHT22;13773;48.868;10.730;2024-03-07T02:24:56;-0.80;99.90
25983;DHT22;13773;48.868;10.730;2024-03-07T02:27:21;-0.80;99.90
25983;DHT22;13773;48.868;10.730;2024-03-07T02:29:47;-0.70;99.90
25983;DHT22;13773;48.868;10.730;2024-03-07T02:32:13;-0.80;99.90
25983;DHT22;13773;48.868;10.730;2024-03-07T02:34:38;-0.90;99.90
25983;DHT22;13773;48.868;10.730;2024-03-07T02:37:04;-0.70;99.90
25983;DHT22;13773;48.868;10.730;2024-03-07T02:39:30;-0.80;99.90
25983;DHT22;13773;48.868;10.730;2024-03-07T02:41:55;-0.80;99.90
25983;DHT22;13773;48.868;10.730;2024-03-07T02:44:21;-0.70;99.90
25983;DHT22;13773;48.868;10.730;2024-03-07T02:46:47;-0.60;99.90
25983;DHT22;13773;48.868;10.730;2024-03-07T02:49:13;-0.70;99.90
25983;DHT22;13773;48.868;10.730;2024-03-07T02:51:42;-0.60;99.90
25983;DHT22;13773;48.868;10.730;2024-03-07T02:54:08;-0.50;99.90
25983;DHT22;13773;48.868;10.730;2024-03-07T02:56:34;0.10;99.90
25983;DHT22;13773;48.868;10.730;2024-03-07T02:59:00;-0.20;99.90
25983;DHT22;13773;48.868;10.730;2024-03-07T03:01:26;-0.20;99.90
25983;DHT22;13773;48.868;10.730;2024-03-07T03:03:52;-0.10;99.90
25983;DHT22;13773;48.868;10.730;2024-03-07T03:06:18;0.00;99.90
25983;DHT22;13773;48.868;10.730;2024-03-07T03:08:46;0.10;99.90
25983;DHT22;13773;48.868;10.730;2024-03-07T03:11:12;0.10;99.90
25983;DHT22;13773;48.868;10.730;2024-03-07T03:13:40;0.10;99.90
25983;DHT22;13773;48.868;10.730;2024-03-07T03:16:05;0.10;99.90
25983;DHT22;13773;48.868;10.730;2024-03-07T03:18:35;0.20;99.90
25983;DHT22;13773;48.868;10.730;2024-03-07T03:21:01;0.20;99.90
25983;DHT22;13773;48.868;10.730;2024-03-07T03:23:27;0.20;99.90
25983;DHT22;13773;48.868;10.730;2024-03-07T03:25:54;0.30;99.90
25983;DHT22;13773;48.868;10.730;2024-03-07T03:28:21;0.20;99.90
25983;DHT22;13773;48.868;10.730;2024-03-07T03:30:47;0.20;99.90
25983;DHT22;13773;48.868;10.730;2024-03-07T03:33:13;0.90;99.90
25983;DHT22;13773;48.868;10.730;2024-03-07T03:35:39;0.20;99.90
25983;DHT22;13773;48.868;10.730;2024-03-07T03:38:05;0.30;99.90
25983;DHT22;13773;48.868;10.730;2024-03-07T03:40:31;0.30;99.90
25983;DHT22;13773;48.868;10.730;2024-03-07T03:42:57;0.30;99.90
25983;DHT22;13773;48.868;10.730;2024-03-07T03:45:22;0.30;99.90
25983;DHT22;13773;48.868;10.730;2024-03-07T03:47:50;0.40;99.90
25983;DHT22;13773;48.868;10.730;2024-03-07T03:50:17;0.50;99.90
25983;DHT22;13773;48.868;10.730;2024-03-07T03:52:43;0.50;99.90
25983;DHT22;13773;48.868;10.730;2024-03-07T03:55:09;0.50;99.90
25983;DHT22;13773;48.868;10.730;2024-03-07T03:57:36;0.60;99.90
25983;DHT22;13773;48.868;10.730;2024-03-07T04:00:03;0.60;99.90
25983;DHT22;13773;48.868;10.730;2024-03-07T04:02:35;0.60;99.90
25983;DHT22;13773;48.868;10.730;2024-03-07T04:05:02;0.60;99.90
25983;DHT22;13773;48.868;10.730;2024-03-07T04:07:29;0.60;99.90
25983;DHT22;13773;48.868;10.730;2024-03-07T04:09:57;0.70;99.90
25983;DHT22;13773;48.868;10.730;2024-03-07T04:12:24;0.70;99.90
25983;DHT22;13773;48.868;10.730;2024-03-07T04:14:52;0.70;99.90
25983;DHT22;13773;48.868;10.730;2024-03-07T04:17:20;1.00;99.90
25983;DHT22;13773;48.868;10.730;2024-03-07T04:19:46;0.80;99.90
25983;DHT22;13773;48.868;10.730;2024-03-07T04:22:12;0.90;99.90
25983;DHT22;13773;48.868;10.730;2024-03-07T04:24:38;0.80;99.90
25983;DHT22;13773;48.868;10.730;2024-03-07T04:27:06;0.80;99.90
25983;DHT22;13773;48.868;10.730;2024-03-07T04:29:33;0.90;99.90
25983;DHT22;13773;48.868;10.730;2024-03-07T04:31:59;0.90;99.90
25983;DHT22;13773;48.868;10.730;2024-03-07T04:34:27;0.80;99.90
25983;DHT22;13773;48.868;10.730;2024-03-07T04:36:53;0.80;99.90
25983;DHT22;13773;48.868;10.730;2024-03-07T04:39:19;0.80;99.90
25983;DHT22;13773;48.868;10.730;2024-03-07T04:42:05;0.80;99.90
25983;DHT22;13773;48.868;10.730;2024-03-07T04:44:34;0.80;99.90
25983;DHT22;13773;48.868;10.730;2024-03-07T04:47:05;1.00;99.90
25983;DHT22;13773;48.868;10.730;2024-03-07T04:49:32;1.00;99.90
25983;DHT22;13773;48.868;10.730;2024-03-07T04:51:59;0.90;99.90
25983;DHT22;13773;48.868;10.730;2024-03-07T04:54:26;1.00;99.90
25983;DHT22;13773;48.868;10.730;2024-03-07T04:56:52;1.00;99.90
25983;DHT22;13773;48.868;10.730;2024-03-07T04:59:19;1.20;99.90
25983;DHT22;13773;48.868;10.730;2024-03-07T05:01:46;1.10;99.90
25983;DHT22;13773;48.868;10.730;2024-03-07T05:04:12;1.10;99.90
25983;DHT22;13773;48.868;10.730;2024-03-07T05:06:39;1.00;99.90
25983;DHT22;13773;48.868;10.730;2024-03-07T05:09:06;1.10;99.90
25983;DHT22;13773;48.868;10.730;2024-03-07T05:11:33;1.20;99.90
25983;DHT22;13773;48.868;10.730;2024-03-07T05:13:59;1.00;99.90
25983;DHT22;13773;48.868;10.730;2024-03-07T05:16:30;1.00;99.90
25983;DHT22;13773;48.868;10.730;2024-03-07T05:18:56;0.90;99.90
25983;DHT22;13773;48.868;10.730;2024-03-07T05:21:28;0.90;99.90
25983;DHT22;13773;48.868;10.730;2024-03-07T05:24:00;0.80;99.90
25983;DHT22;13773;48.868;10.730;2024-03-07T05:26:26;0.80;99.90
25983;DHT22;13773;48.868;10.730;2024-03-07T05:28:52;0.80;99.90
25983;DHT22;13773;48.868;10.730;2024-03-07T05:31:20;0.70;99.90
25983;DHT22;13773;48.868;10.730;2024-03-07T05:33:47;0.70;99.90
25983;DHT22;13773;48.868;10.730;2024-03-07T05:36:13;0.70;99.90
25983;DHT22;13773;48.868;10.730;2024-03-07T05:38:44;0.60;99.90
25983;DHT22;13773;48.868;10.730;2024-03-07T05:41:13;0.80;99.90
25983;DHT22;13773;48.868;10.730;2024-03-07T05:43:40;0.50;99.90
25983;DHT22;13773;48.868;10.730;2024-03-07T05:46:06;0.60;99.90
25983;DHT22;13773;48.868;10.730;2024-03-07T05:48:36;0.50;99.90
25983;DHT22;13773;48.868;10.730;2024-03-07T05:51:02;0.60;99.90
25983;DHT22;13773;48.868;10.730;2024-03-07T05:53:28;0.60;99.90
25983;DHT22;13773;48.868;10.730;2024-03-07T05:55:54;0.60;99.90
25983;DHT22;13773;48.868;10.730;2024-03-07T05:58:20;0.60;99.90
25983;DHT22;13773;48.868;10.730;2024-03-07T06:00:48;0.90;99.90
25983;DHT22;13773;48.868;10.730;2024-03-07T06:03:20;0.70;99.90
25983;DHT22;13773;48.868;10.730;2024-03-07T06:05:49;0.80;99.90
25983;DHT22;13773;48.868;10.730;2024-03-07T06:08:16;0.70;99.90
25983;DHT22;13773;48.868;10.730;2024-03-07T06:10:45;0.80;99.90
25983;DHT22;13773;48.868;10.730;2024-03-07T06:13:12;0.80;99.90
25983;DHT22;13773;48.868;10.730;2024-03-07T06:15:42;0.90;99.90
25983;DHT22;13773;48.868;10.730;2024-03-07T06:18:08;1.00;99.90
25983;DHT22;13773;48.868;10.730;2024-03-07T06:20:36;0.90;99.90
25983;DHT22;13773;48.868;10.730;2024-03-07T06:23:03;0.90;99.90
25983;DHT22;13773;48.868;10.730;2024-03-07T06:25:31;0.90;99.90
25983;DHT22;13773;48.868;10.730;2024-03-07T06:28:06;0.90;99.90
25983;DHT22;13773;48.868;10.730;2024-03-07T06:30:36;1.00;99.90
25983;DHT22;13773;48.868;10.730;2024-03-07T06:33:02;1.10;99.90
25983;DHT22;13773;48.868;10.730;2024-03-07T06:35:28;1.10;99.90
25983;DHT22;13773;48.868;10.730;2024-03-07T06:37:53;1.20;99.90
25983;DHT22;13773;48.868;10.730;2024-03-07T06:40:19;1.10;99.90
25983;DHT22;13773;48.868;10.730;2024-03-07T06:42:48;1.10;99.90
25983;DHT22;13773;48.868;10.730;2024-03-07T06:45:14;1.20;99.90
25983;DHT22;13773;48.868;10.730;2024-03-07T06:47:40;1.60;99.90
25983;DHT22;13773;48.868;10.730;2024-03-07T06:50:07;1.30;99.90
25983;DHT22;13773;48.868;10.730;2024-03-07T06:52:35;1.30;99.90
25983;DHT22;13773;48.868;10.730;2024-03-07T06:55:02;2.00;99.90
25983;DHT22;13773;48.868;10.730;2024-03-07T06:57:32;1.50;99.90
25983;DHT22;13773;48.868;10.730;2024-03-07T06:59:59;1.70;99.90
25983;DHT22;13773;48.868;10.730;2024-03-07T07:02:25;1.60;99.90
25983;DHT22;13773;48.868;10.730;2024-03-07T07:04:53;1.80;99.90
25983;DHT22;13773;48.868;10.730;2024-03-07T07:07:19;1.60;99.90
25983;DHT22;13773;48.868;10.730;2024-03-07T07:09:45;1.50;99.90
25983;DHT22;13773;48.868;10.730;2024-03-07T07:12:11;2.40;99.90
25983;DHT22;13773;48.868;10.730;2024-03-07T07:14:37;1.70;99.90
25983;DHT22;13773;48.868;10.730;2024-03-07T07:17:04;1.70;99.90
25983;DHT22;13773;48.868;10.730;2024-03-07T07:19:30;1.70;99.90
25983;DHT22;13773;48.868;10.730;2024-03-07T07:21:56;1.70;99.90
25983;DHT22;13773;48.868;10.730;2024-03-07T07:24:22;1.80;99.90
25983;DHT22;13773;48.868;10.730;2024-03-07T07:26:51;1.70;99.90
25983;DHT22;13773;48.868;10.730;2024-03-07T07:29:17;1.80;99.90
25983;DHT22;13773;48.868;10.730;2024-03-07T07:31:44;2.20;99.90
25983;DHT22;13773;48.868;10.730;2024-03-07T07:34:10;2.30;99.90
25983;DHT22;13773;48.868;10.730;2024-03-07T07:36:36;2.60;99.90
25983;DHT22;13773;48.868;10.730;2024-03-07T07:39:02;2.60;99.90
25983;DHT22;13773;48.868;10.730;2024-03-07T07:41:28;2.60;99.90
25983;DHT22;13773;48.868;10.730;2024-03-07T07:43:56;2.40;99.90
25983;DHT22;13773;48.868;10.730;2024-03-07T07:46:22;2.30;99.90
25983;DHT22;13773;48.868;10.730;2024-03-07T07:48:48;2.40;99.90
25983;DHT22;13773;48.868;10.730;2024-03-07T07:51:14;2.50;99.90
25983;DHT22;13773;48.868;10.730;2024-03-07T07:53:40;2.40;99.90
25983;DHT22;13773;48.868;10.730;2024-03-07T07:56:05;2.50;99.90
25983;DHT22;13773;48.868;10.730;2024-03-07T07:58:31;2.50;99.90
25983;DHT22;13773;48.868;10.730;2024-03-07T08:00:57;2.40;99.90
25983;DHT22;13773;48.868;10.730;2024-03-07T08:03:22;2.60;99.90
25983;DHT22;13773;48.868;10.730;2024-03-07T08:05:48;2.50;99.90
25983;DHT22;13773;48.868;10.730;2024-03-07T08:08:14;2.30;99.90
25983;DHT22;13773;48.868;10.730;2024-03-07T08:10:42;2.50;99.90
25983;DHT22;13773;48.868;10.730;2024-03-07T08:13:08;2.60;99.90
25983;DHT22;13773;48.868;10.730;2024-03-07T08:15:39;2.80;99.90
25983;DHT22;13773;48.868;10.730;2024-03-07T08:18:05;2.70;99.90
25983;DHT22;13773;48.868;10.730;2024-03-07T08:20:37;2.70;99.90
25983;DHT22;13773;48.868;10.730;2024-03-07T08:23:04;2.80;99.90
25983;DHT22;13773;48.868;10.730;2024-03-07T08:25:29;2.80;99.90
25983;DHT22;13773;48.868;10.730;2024-03-07T08:27:56;3.10;99.90
25983;DHT22;13773;48.868;10.730;2024-03-07T08:30:23;2.90;99.90
25983;DHT22;13773;48.868;10.730;2024-03-07T08:32:57;3.00;99.90
25983;DHT22;13773;48.868;10.730;2024-03-07T08:35:23;3.30;99.90
25983;DHT22;13773;48.868;10.730;2024-03-07T08:37:52;3.40;99.90
25983;DHT22;13773;48.868;10.730;2024-03-07T08:40:19;3.80;99.90
25983;DHT22;13773;48.868;10.730;2024-03-07T08:42:55;3.60;99.90
25983;DHT22;13773;48.868;10.730;2024-03-07T08:45:21;3.50;99.90
25983;DHT22;13773;48.868;10.730;2024-03-07T08:47:48;3.50;99.90
25983;DHT22;13773;48.868;10.730;2024-03-07T08:50:15;3.40;99.90
25983;DHT22;13773;48.868;10.730;2024-03-07T08:52:46;3.60;99.90
25983;DHT22;13773;48.868;10.730;2024-03-07T08:55:14;3.40;99.90
25983;DHT22;13773;48.868;10.730;2024-03-07T08:57:41;3.40;99.90
25983;DHT22;13773;48.868;10.730;2024-03-07T09:00:08;3.50;99.90
25983;DHT22;13773;48.868;10.730;2024-03-07T09:02:34;3.60;99.90
25983;DHT22;13773;48.868;10.730;2024-03-07T09:05:03;3.50;99.90
25983;DHT22;13773;48.868;10.730;2024-03-07T09:07:29;3.60;99.90
25983;DHT22;13773;48.868;10.730;2024-03-07T09:09:55;3.80;99.90
25983;DHT22;13773;48.868;10.730;2024-03-07T09:12:21;3.80;99.90
25983;DHT22;13773;48.868;10.730;2024-03-07T09:14:47;3.90;99.90
25983;DHT22;13773;48.868;10.730;2024-03-07T09:17:13;4.20;99.90
25983;DHT22;13773;48.868;10.730;2024-03-07T09:19:39;4.20;99.90
25983;DHT22;13773;48.868;10.730;2024-03-07T09:22:04;4.30;99.90
25983;DHT22;13773;48.868;10.730;2024-03-07T09:24:33;4.60;99.90
25983;DHT22;13773;48.868;10.730;2024-03-07T09:27:00;4.50;99.90
25983;DHT22;13773;48.868;10.730;2024-03-07T09:29:26;4.80;99.90
25983;DHT22;13773;48.868;10.730;2024-03-07T09:31:53;7.50;99.90
25983;DHT22;13773;48.868;10.730;2024-03-07T09:34:19;4.90;99.90
25983;DHT22;13773;48.868;10.730;2024-03-07T09:36:48;5.20;99.90
25983;DHT22;13773;48.868;10.730;2024-03-07T09:39:17;5.40;99.90
25983;DHT22;13773;48.868;10.730;2024-03-07T09:41:44;5.30;99.90
25983;DHT22;13773;48.868;10.730;2024-03-07T09:44:14;5.00;99.90
25983;DHT22;13773;48.868;10.730;2024-03-07T09:46:44;5.10;99.90
25983;DHT22;13773;48.868;10.730;2024-03-07T09:49:12;4.80;99.90
25983;DHT22;13773;48.868;10.730;2024-03-07T09:51:39;4.80;99.90
25983;DHT22;13773;48.868;10.730;2024-03-07T09:54:05;5.10;99.90
25983;DHT22;13773;48.868;10.730;2024-03-07T09:56:31;5.30;99.90
25983;DHT22;13773;48.868;10.730;2024-03-07T09:59:11;4.90;99.90
25983;DHT22;13773;48.868;10.730;2024-03-07T10:01:37;5.20;99.90
25983;DHT22;13773;48.868;10.730;2024-03-07T10:04:05;5.50;99.90
25983;DHT22;13773;48.868;10.730;2024-03-07T10:06:43;5.70;99.90
25983;DHT22;13773;48.868;10.730;2024-03-07T10:09:13;5.80;99.90
25983;DHT22;13773;48.868;10.730;2024-03-07T10:11:42;6.20;99.90
25983;DHT22;13773;48.868;10.730;2024-03-07T10:14:09;6.50;99.90
25983;DHT22;13773;48.868;10.730;2024-03-07T10:16:36;6.70;99.90
25983;DHT22;13773;48.868;10.730;2024-03-07T10:19:05;6.80;99.90
25983;DHT22;13773;48.868;10.730;2024-03-07T10:21:33;6.90;99.90
25983;DHT22;13773;48.868;10.730;2024-03-07T10:24:05;7.10;99.90
25983;DHT22;13773;48.868;10.730;2024-03-07T10:26:37;7.10;99.90
25983;DHT22;13773;48.868;10.730;2024-03-07T10:29:04;7.10;99.90
25983;DHT22;13773;48.868;10.730;2024-03-07T10:31:34;7.20;99.90
25983;DHT22;13773;48.868;10.730;2024-03-07T10:34:09;7.30;99.90
25983;DHT22;13773;48.868;10.730;2024-03-07T10:36:35;7.20;99.90
25983;DHT22;13773;48.868;10.730;2024-03-07T10:39:03;7.30;99.90
25983;DHT22;13773;48.868;10.730;2024-03-07T10:41:38;7.20;99.90
25983;DHT22;13773;48.868;10.730;2024-03-07T10:44:06;7.10;99.90
25983;DHT22;13773;48.868;10.730;2024-03-07T10:46:32;6.50;99.90
25983;DHT22;13773;48.868;10.730;2024-03-07T10:48:59;6.50;99.90
25983;DHT22;13773;48.868;10.730;2024-03-07T10:52:01;6.30;99.90
25983;DHT22;13773;48.868;10.730;2024-03-07T10:54:31;6.30;99.90
25983;DHT22;13773;48.868;10.730;2024-03-07T10:59:37;5.80;99.90
25983;DHT22;13773;48.868;10.730;2024-03-07T11:04:38;6.30;99.90
25983;DHT22;13773;48.868;10.730;2024-03-07T11:07:04;6.20;99.90
25983;DHT22;13773;48.868;10.730;2024-03-07T11:09:31;6.20;99.90
25983;DHT22;13773;48.868;10.730;2024-03-07T11:12:03;6.10;99.90
25983;DHT22;13773;48.868;10.730;2024-03-07T11:14:29;6.30;99.90
25983;DHT22;13773;48.868;10.730;2024-03-07T11:16:57;6.70;99.90
25983;DHT22;13773;48.868;10.730;2024-03-07T11:19:31;6.70;99.90
25983;DHT22;13773;48.868;10.730;2024-03-07T11:22:02;6.80;99.90
25983;DHT22;13773;48.868;10.730;2024-03-07T11:24:39;6.50;99.90
25983;DHT22;13773;48.868;10.730;2024-03-07T11:27:09;6.40;99.90
25983;DHT22;13773;48.868;10.730;2024-03-07T11:29:42;6.30;99.90
25983;DHT22;13773;48.868;10.730;2024-03-07T11:32:12;6.10;99.90
25983;DHT22;13773;48.868;10.730;2024-03-07T11:34:42;6.30;99.90
25983;DHT22;13773;48.868;10.730;2024-03-07T11:37:09;6.10;99.90
25983;DHT22;13773;48.868;10.730;2024-03-07T11:39:50;6.30;99.90
25983;DHT22;13773;48.868;10.730;2024-03-07T11:42:25;6.50;99.90
25983;DHT22;13773;48.868;10.730;2024-03-07T11:44:51;6.40;99.90
25983;DHT22;13773;48.868;10.730;2024-03-07T11:47:17;6.40;99.90
25983;DHT22;13773;48.868;10.730;2024-03-07T11:49:44;6.50;99.90
25983;DHT22;13773;48.868;10.730;2024-03-07T11:52:16;6.50;99.90
25983;DHT22;13773;48.868;10.730;2024-03-07T11:54:42;6.30;99.90
25983;DHT22;13773;48.868;10.730;2024-03-07T11:57:18;6.40;99.90
25983;DHT22;13773;48.868;10.730;2024-03-07T11:59:58;6.50;99.90
25983;DHT22;13773;48.868;10.730;2024-03-07T12:02:27;6.60;99.90
25983;DHT22;13773;48.868;10.730;2024-03-07T12:04:53;6.80;99.90
25983;DHT22;13773;48.868;10.730;2024-03-07T12:07:19;6.90;99.90
25983;DHT22;13773;48.868;10.730;2024-03-07T12:09:48;6.80;99.90
25983;DHT22;13773;48.868;10.730;2024-03-07T12:12:20;7.20;99.90
25983;DHT22;13773;48.868;10.730;2024-03-07T12:14:54;7.80;99.90
25983;DHT22;13773;48.868;10.730;2024-03-07T12:17:20;8.20;99.90
25983;DHT22;13773;48.868;10.730;2024-03-07T12:19:46;8.40;99.90
25983;DHT22;13773;48.868;10.730;2024-03-07T12:22:13;8.40;99.90
25983;DHT22;13773;48.868;10.730;2024-03-07T12:24:39;8.20;99.90
25983;DHT22;13773;48.868;10.730;2024-03-07T12:27:09;7.70;99.90
25983;DHT22;13773;48.868;10.730;2024-03-07T12:29:40;7.50;99.90
25983;DHT22;13773;48.868;10.730;2024-03-07T12:32:08;7.70;99.90
25983;DHT22;13773;48.868;10.730;2024-03-07T12:34:39;7.40;99.90
25983;DHT22;13773;48.868;10.730;2024-03-07T12:37:07;7.90;99.90
25983;DHT22;13773;48.868;10.730;2024-03-07T12:39:33;7.80;99.90
25983;DHT22;13773;48.868;10.730;2024-03-07T12:42:12;7.90;99.90
25983;DHT22;13773;48.868;10.730;2024-03-07T12:44:44;7.10;99.90
25983;DHT22;13773;48.868;10.730;2024-03-07T12:47:13;7.30;99.90
25983;DHT22;13773;48.868;10.730;2024-03-07T12:49:45;7.30;99.90
25983;DHT22;13773;48.868;10.730;2024-03-07T12:52:12;7.20;99.90
25983;DHT22;13773;48.868;10.730;2024-03-07T12:54:41;7.80;99.90
25983;DHT22;13773;48.868;10.730;2024-03-07T12:57:16;8.50;99.90
25983;DHT22;13773;48.868;10.730;2024-03-07T12:59:41;8.90;99.90
25983;DHT22;13773;48.868;10.730;2024-03-07T13:02:08;7.90;99.90
25983;DHT22;13773;48.868;10.730;2024-03-07T13:04:34;8.10;99.90
25983;DHT22;13773;48.868;10.730;2024-03-07T13:07:00;7.90;99.90
25983;DHT22;13773;48.868;10.730;2024-03-07T13:09:30;8.10;99.90
25983;DHT22;13773;48.868;10.730;2024-03-07T13:11:57;8.10;99.90
25983;DHT22;13773;48.868;10.730;2024-03-07T13:14:28;7.40;99.90
25983;DHT22;13773;48.868;10.730;2024-03-07T13:17:01;7.60;99.90
25983;DHT22;13773;48.868;10.730;2024-03-07T13:19:28;7.30;99.90
25983;DHT22;13773;48.868;10.730;2024-03-07T13:21:55;7.20;99.90
25983;DHT22;13773;48.868;10.730;2024-03-07T13:24:22;6.90;99.90
25983;DHT22;13773;48.868;10.730;2024-03-07T13:26:48;6.90;99.90
25983;DHT22;13773;48.868;10.730;2024-03-07T13:29:14;6.70;99.90
25983;DHT22;13773;48.868;10.730;2024-03-07T13:31:42;6.60;99.90
25983;DHT22;13773;48.868;10.730;2024-03-07T13:34:11;6.90;99.90
25983;DHT22;13773;48.868;10.730;2024-03-07T13:36:40;7.10;99.90
25983;DHT22;13773;48.868;10.730;2024-03-07T13:39:07;7.00;99.90
25983;DHT22;13773;48.868;10.730;2024-03-07T13:41:43;6.80;99.90
25983;DHT22;13773;48.868;10.730;2024-03-07T13:44:14;6.80;99.90
25983;DHT22;13773;48.868;10.730;2024-03-07T13:46:39;6.90;99.90
25983;DHT22;13773;48.868;10.730;2024-03-07T13:49:05;6.70;99.90
25983;DHT22;13773;48.868;10.730;2024-03-07T13:51:43;6.80;99.90
25983;DHT22;13773;48.868;10.730;2024-03-07T13:54:29;6.80;99.90
25983;DHT22;13773;48.868;10.730;2024-03-07T13:57:24;6.70;99.90
25983;DHT22;13773;48.868;10.730;2024-03-07T14:05:55;7.00;99.90
25983;DHT22;13773;48.868;10.730;2024-03-07T14:29:15;6.50;99.90
25983;DHT22;13773;48.868;10.730;2024-03-07T14:31:43;6.50;99.90
25983;DHT22;13773;48.868;10.730;2024-03-07T14:34:29;4.80;99.90
25983;DHT22;13773;48.868;10.730;2024-03-07T14:37:19;6.30;99.90
25983;DHT22;13773;48.868;10.730;2024-03-07T14:39:49;6.40;99.90
25983;DHT22;13773;48.868;10.730;2024-03-07T14:42:17;6.40;99.90
25983;DHT22;13773;48.868;10.730;2024-03-07T14:44:45;6.40;99.90
25983;DHT22;13773;48.868;10.730;2024-03-07T14:47:16;6.30;99.90
25983;DHT22;13773;48.868;10.730;2024-03-07T14:49:44;6.40;99.90
25983;DHT22;13773;48.868;10.730;2024-03-07T14:52:10;6.40;99.90
25983;DHT22;13773;48.868;10.730;2024-03-07T14:54:38;6.20;99.90
25983;DHT22;13773;48.868;10.730;2024-03-07T14:57:05;6.00;99.90
25983;DHT22;13773;48.868;10.730;2024-03-07T14:59:31;6.00;99.90
25983;DHT22;13773;48.868;10.730;2024-03-07T15:01:58;6.10;99.90
25983;DHT22;13773;48.868;10.730;2024-03-07T15:04:28;6.00;99.90
25983;DHT22;13773;48.868;10.730;2024-03-07T15:06:57;6.00;99.90
25983;DHT22;13773;48.868;10.730;2024-03-07T15:09:23;6.00;99.90
25983;DHT22;13773;48.868;10.730;2024-03-07T15:11:49;5.90;99.90
25983;DHT22;13773;48.868;10.730;2024-03-07T15:14:15;5.80;99.90
25983;DHT22;13773;48.868;10.730;2024-03-07T15:16:41;5.80;99.90
25983;DHT22;13773;48.868;10.730;2024-03-07T15:19:08;5.80;99.90
25983;DHT22;13773;48.868;10.730;2024-03-07T15:21:37;5.80;99.90
25983;DHT22;13773;48.868;10.730;2024-03-07T15:24:06;5.70;99.90
25983;DHT22;13773;48.868;10.730;2024-03-07T15:26:32;5.70;99.90
25983;DHT22;13773;48.868;10.730;2024-03-07T15:28:58;5.70;99.90
25983;DHT22;13773;48.868;10.730;2024-03-07T15:31:26;5.60;99.90
25983;DHT22;13773;48.868;10.730;2024-03-07T15:33:52;5.60;99.90
25983;DHT22;13773;48.868;10.730;2024-03-07T15:36:18;5.60;99.90
25983;DHT22;13773;48.868;10.730;2024-03-07T15:38:44;5.70;99.90
25983;DHT22;13773;48.868;10.730;2024-03-07T15:41:10;5.70;99.90
25983;DHT22;13773;48.868;10.730;2024-03-07T15:43:40;5.70;99.90
25983;DHT22;13773;48.868;10.730;2024-03-07T15:46:13;5.70;99.90
25983;DHT22;13773;48.868;10.730;2024-03-07T15:48:44;5.70;99.90
25983;DHT22;13773;48.868;10.730;2024-03-07T15:51:10;5.60;99.90
25983;DHT22;13773;48.868;10.730;2024-03-07T15:53:37;5.60;99.90
25983;DHT22;13773;48.868;10.730;2024-03-07T15:56:03;5.60;99.90
25983;DHT22;13773;48.868;10.730;2024-03-07T15:58:32;5.50;99.90
25983;DHT22;13773;48.868;10.730;2024-03-07T16:00:58;5.60;99.90
25983;DHT22;13773;48.868;10.730;2024-03-07T16:03:26;5.60;99.90
25983;DHT22;13773;48.868;10.730;2024-03-07T16:05:53;5.70;99.90